Saint Francis, Wisconsin
Current Conditions -  °F | °C
As of 1:52 PM on Thursday 30 Oct 2014 (Local Time) from KMKE Reporting Station
Broken Clouds Broken Clouds  
Wind Chill: 50°   Ceiling: 11000
Heat Index: 50°   Visibility: 10mi
Dew Point: 32°   Wind: 12mph
Humidity: 50%   Direction: 260°W
Pressure: 30.06"   Gusts: NA
Location:  42.97°N, 87.88°W
Report Text: KMKE 301852Z 26010KT 10SM BKN110 10/00 A3006 RMK AO2 SLP183 T01000000
Loading
Personal Weather Stations






























Interactive Weather Map
Tropical Storm Tracking
New forecast layout! Learn more

10-Day Weather Forecast

Advertisements
Track Severe Weather on mobile